sensor_id;sensor_type;location;lat;lon;timestamp;temperature;humidity
546;DHT22;259;53.304;9.816;2023-06-22T00:00:51;23.70;82.90
546;DHT22;259;53.304;9.816;2023-06-22T00:03:19;23.70;83.00
546;DHT22;259;53.304;9.816;2023-06-22T00:05:46;23.70;83.00
546;DHT22;259;53.304;9.816;2023-06-22T00:08:12;23.70;83.00
546;DHT22;259;53.304;9.816;2023-06-22T00:10:39;23.70;83.10
546;DHT22;259;53.304;9.816;2023-06-22T00:13:06;23.70;83.10
546;DHT22;259;53.304;9.816;2023-06-22T00:15:32;23.60;83.00
546;DHT22;259;53.304;9.816;2023-06-22T00:17:58;23.60;83.00
546;DHT22;259;53.304;9.816;2023-06-22T00:20:25;23.60;83.00
546;DHT22;259;53.304;9.816;2023-06-22T00:22:55;23.60;83.10
546;DHT22;259;53.304;9.816;2023-06-22T00:25:21;23.60;82.90
546;DHT22;259;53.304;9.816;2023-06-22T00:27:48;23.60;83.10
546;DHT22;259;53.304;9.816;2023-06-22T00:30:17;23.50;83.00
546;DHT22;259;53.304;9.816;2023-06-22T00:32:44;23.50;82.90
546;DHT22;259;53.304;9.816;2023-06-22T00:35:11;23.50;82.90
546;DHT22;259;53.304;9.816;2023-06-22T00:37:38;23.50;83.10
546;DHT22;259;53.304;9.816;2023-06-22T00:40:06;23.50;83.10
546;DHT22;259;53.304;9.816;2023-06-22T00:42:34;23.40;83.00
546;DHT22;259;53.304;9.816;2023-06-22T00:45:00;23.40;82.90
546;DHT22;259;53.304;9.816;2023-06-22T00:47:26;23.40;82.80
546;DHT22;259;53.304;9.816;2023-06-22T00:49:52;23.40;82.90
546;DHT22;259;53.304;9.816;2023-06-22T00:52:20;23.40;83.00
546;DHT22;259;53.304;9.816;2023-06-22T00:54:47;23.40;83.00
546;DHT22;259;53.304;9.816;2023-06-22T00:57:14;23.40;83.00
546;DHT22;259;53.304;9.816;2023-06-22T00:59:44;23.40;82.70
546;DHT22;259;53.304;9.816;2023-06-22T01:02:11;23.30;82.40
546;DHT22;259;53.304;9.816;2023-06-22T01:04:38;23.30;82.10
546;DHT22;259;53.304;9.816;2023-06-22T01:07:30;23.30;82.30
546;DHT22;259;53.304;9.816;2023-06-22T01:10:10;23.30;82.30
546;DHT22;259;53.304;9.816;2023-06-22T01:12:53;23.30;82.60
546;DHT22;259;53.304;9.816;2023-06-22T01:15:31;23.30;82.50
546;DHT22;259;53.304;9.816;2023-06-22T01:18:04;23.30;82.60
546;DHT22;259;53.304;9.816;2023-06-22T01:20:31;23.30;82.60
546;DHT22;259;53.304;9.816;2023-06-22T01:25:55;23.30;82.60
546;DHT22;259;53.304;9.816;2023-06-22T01:28:48;23.20;82.50
546;DHT22;259;53.304;9.816;2023-06-22T01:31:21;23.20;82.50
546;DHT22;259;53.304;9.816;2023-06-22T01:33:52;23.20;82.50
546;DHT22;259;53.304;9.816;2023-06-22T01:36:21;23.20;82.50
546;DHT22;259;53.304;9.816;2023-06-22T01:38:47;23.10;82.50
546;DHT22;259;53.304;9.816;2023-06-22T01:41:15;23.10;82.20
546;DHT22;259;53.304;9.816;2023-06-22T01:43:41;23.10;82.30
546;DHT22;259;53.304;9.816;2023-06-22T01:46:08;23.10;82.40
546;DHT22;259;53.304;9.816;2023-06-22T01:48:34;23.10;82.40
546;DHT22;259;53.304;9.816;2023-06-22T01:51:00;23.00;82.40
546;DHT22;259;53.304;9.816;2023-06-22T01:53:26;23.00;82.10
546;DHT22;259;53.304;9.816;2023-06-22T01:55:52;23.00;82.20
546;DHT22;259;53.304;9.816;2023-06-22T01:58:20;23.00;82.30
546;DHT22;259;53.304;9.816;2023-06-22T02:00:55;23.00;82.30
546;DHT22;259;53.304;9.816;2023-06-22T02:03:27;23.00;82.40
546;DHT22;259;53.304;9.816;2023-06-22T02:06:08;23.00;82.30
546;DHT22;259;53.304;9.816;2023-06-22T02:08:41;22.90;82.40
546;DHT22;259;53.304;9.816;2023-06-22T02:11:09;22.90;82.50
546;DHT22;259;53.304;9.816;2023-06-22T02:13:36;22.90;82.10
546;DHT22;259;53.304;9.816;2023-06-22T02:16:03;22.90;82.00
546;DHT22;259;53.304;9.816;2023-06-22T02:18:29;22.90;81.60
546;DHT22;259;53.304;9.816;2023-06-22T02:20:55;22.90;81.80
546;DHT22;259;53.304;9.816;2023-06-22T02:23:20;22.90;81.50
546;DHT22;259;53.304;9.816;2023-06-22T02:25:46;22.90;81.90
546;DHT22;259;53.304;9.816;2023-06-22T02:28:12;22.90;81.80
546;DHT22;259;53.304;9.816;2023-06-22T02:30:38;22.90;82.40
546;DHT22;259;53.304;9.816;2023-06-22T02:33:03;22.90;82.10
546;DHT22;259;53.304;9.816;2023-06-22T02:35:29;22.90;81.90
546;DHT22;259;53.304;9.816;2023-06-22T02:37:57;22.80;82.20
546;DHT22;259;53.304;9.816;2023-06-22T02:40:25;22.80;82.30
546;DHT22;259;53.304;9.816;2023-06-22T02:42:50;22.80;82.20
546;DHT22;259;53.304;9.816;2023-06-22T02:45:16;22.80;82.50
546;DHT22;259;53.304;9.816;2023-06-22T02:47:42;22.80;82.20
546;DHT22;259;53.304;9.816;2023-06-22T02:50:08;22.70;82.60
546;DHT22;259;53.304;9.816;2023-06-22T02:52:34;22.70;82.50
546;DHT22;259;53.304;9.816;2023-06-22T02:55:00;22.70;82.60
546;DHT22;259;53.304;9.816;2023-06-22T02:57:25;22.70;82.60
546;DHT22;259;53.304;9.816;2023-06-22T02:59:51;22.70;82.40
546;DHT22;259;53.304;9.816;2023-06-22T03:02:17;22.60;82.60
546;DHT22;259;53.304;9.816;2023-06-22T03:04:43;22.60;82.50
546;DHT22;259;53.304;9.816;2023-06-22T03:07:09;22.60;82.60
546;DHT22;259;53.304;9.816;2023-06-22T03:09:35;22.60;82.60
546;DHT22;259;53.304;9.816;2023-06-22T03:12:00;22.60;82.60
546;DHT22;259;53.304;9.816;2023-06-22T03:14:27;22.60;82.70
546;DHT22;259;53.304;9.816;2023-06-22T03:16:53;22.60;82.70
546;DHT22;259;53.304;9.816;2023-06-22T03:19:19;22.50;82.70
546;DHT22;259;53.304;9.816;2023-06-22T03:21:46;22.50;82.70
546;DHT22;259;53.304;9.816;2023-06-22T03:24:12;22.50;82.60
546;DHT22;259;53.304;9.816;2023-06-22T03:26:38;22.50;83.50
546;DHT22;259;53.304;9.816;2023-06-22T03:29:03;22.50;82.70
546;DHT22;259;53.304;9.816;2023-06-22T03:31:29;22.50;82.70
546;DHT22;259;53.304;9.816;2023-06-22T03:33:55;22.50;82.90
546;DHT22;259;53.304;9.816;2023-06-22T03:36:21;22.50;83.00
546;DHT22;259;53.304;9.816;2023-06-22T03:38:48;22.50;82.70
546;DHT22;259;53.304;9.816;2023-06-22T03:41:15;22.50;83.00
546;DHT22;259;53.304;9.816;2023-06-22T03:43:41;22.50;83.00
546;DHT22;259;53.304;9.816;2023-06-22T03:46:07;22.40;82.50
546;DHT22;259;53.304;9.816;2023-06-22T03:48:33;22.50;82.70
546;DHT22;259;53.304;9.816;2023-06-22T03:51:02;22.40;82.90
546;DHT22;259;53.304;9.816;2023-06-22T03:53:30;22.40;82.90
546;DHT22;259;53.304;9.816;2023-06-22T03:55:56;22.40;83.10
546;DHT22;259;53.304;9.816;2023-06-22T03:58:22;22.40;84.30
546;DHT22;259;53.304;9.816;2023-06-22T04:00:49;22.40;83.40
546;DHT22;259;53.304;9.816;2023-06-22T04:03:15;22.40;83.20
546;DHT22;259;53.304;9.816;2023-06-22T04:05:43;22.40;83.30
546;DHT22;259;53.304;9.816;2023-06-22T04:08:09;22.40;83.50
546;DHT22;259;53.304;9.816;2023-06-22T04:10:35;22.30;83.50
546;DHT22;259;53.304;9.816;2023-06-22T04:13:01;22.30;83.60
546;DHT22;259;53.304;9.816;2023-06-22T04:15:26;22.30;83.60
546;DHT22;259;53.304;9.816;2023-06-22T04:17:53;22.30;83.80
546;DHT22;259;53.304;9.816;2023-06-22T04:20:19;22.30;83.80
546;DHT22;259;53.304;9.816;2023-06-22T04:22:45;22.30;83.90
546;DHT22;259;53.304;9.816;2023-06-22T04:25:11;22.30;83.90
546;DHT22;259;53.304;9.816;2023-06-22T04:27:37;22.30;84.20
546;DHT22;259;53.304;9.816;2023-06-22T04:30:06;22.30;84.10
546;DHT22;259;53.304;9.816;2023-06-22T04:32:36;22.30;84.20
546;DHT22;259;53.304;9.816;2023-06-22T04:35:04;22.20;84.20
546;DHT22;259;53.304;9.816;2023-06-22T04:37:32;22.30;84.20
546;DHT22;259;53.304;9.816;2023-06-22T04:39:58;22.30;84.30
546;DHT22;259;53.304;9.816;2023-06-22T04:42:28;22.20;84.30
546;DHT22;259;53.304;9.816;2023-06-22T04:44:54;22.20;84.30
546;DHT22;259;53.304;9.816;2023-06-22T04:47:20;22.20;84.20
546;DHT22;259;53.304;9.816;2023-06-22T04:49:46;22.20;84.50
546;DHT22;259;53.304;9.816;2023-06-22T04:52:12;22.20;84.40
546;DHT22;259;53.304;9.816;2023-06-22T04:54:40;22.20;84.20
546;DHT22;259;53.304;9.816;2023-06-22T04:57:14;22.20;84.60
546;DHT22;259;53.304;9.816;2023-06-22T04:59:40;22.20;84.60
546;DHT22;259;53.304;9.816;2023-06-22T05:02:07;22.20;84.30
546;DHT22;259;53.304;9.816;2023-06-22T05:04:34;22.20;84.30
546;DHT22;259;53.304;9.816;2023-06-22T05:07:02;22.20;84.20
546;DHT22;259;53.304;9.816;2023-06-22T05:09:28;22.20;84.40
546;DHT22;259;53.304;9.816;2023-06-22T05:11:55;22.20;84.50
546;DHT22;259;53.304;9.816;2023-06-22T05:14:22;22.20;84.60
546;DHT22;259;53.304;9.816;2023-06-22T05:16:48;22.20;84.60
546;DHT22;259;53.304;9.816;2023-06-22T05:19:14;22.20;84.80
546;DHT22;259;53.304;9.816;2023-06-22T05:21:40;22.20;84.80
546;DHT22;259;53.304;9.816;2023-06-22T05:24:06;22.20;84.80
546;DHT22;259;53.304;9.816;2023-06-22T05:26:33;22.10;85.50
546;DHT22;259;53.304;9.816;2023-06-22T05:29:01;22.10;84.80
546;DHT22;259;53.304;9.816;2023-06-22T05:31:28;22.10;84.90
546;DHT22;259;53.304;9.816;2023-06-22T05:33:55;22.10;85.10
546;DHT22;259;53.304;9.816;2023-06-22T05:36:21;22.10;84.90
546;DHT22;259;53.304;9.816;2023-06-22T05:38:51;22.10;85.00
546;DHT22;259;53.304;9.816;2023-06-22T05:41:18;22.10;85.10
546;DHT22;259;53.304;9.816;2023-06-22T05:43:44;22.10;85.20
546;DHT22;259;53.304;9.816;2023-06-22T05:46:09;22.10;85.20
546;DHT22;259;53.304;9.816;2023-06-22T05:48:35;22.10;85.30
546;DHT22;259;53.304;9.816;2023-06-22T05:51:01;22.10;85.40
546;DHT22;259;53.304;9.816;2023-06-22T05:53:26;22.10;85.40
546;DHT22;259;53.304;9.816;2023-06-22T05:55:52;22.10;85.90
546;DHT22;259;53.304;9.816;2023-06-22T05:58:18;22.10;85.70
546;DHT22;259;53.304;9.816;2023-06-22T06:00:44;22.00;85.70
546;DHT22;259;53.304;9.816;2023-06-22T06:03:10;22.00;85.70
546;DHT22;259;53.304;9.816;2023-06-22T06:05:36;22.10;85.90
546;DHT22;259;53.304;9.816;2023-06-22T06:08:03;22.00;86.00
546;DHT22;259;53.304;9.816;2023-06-22T06:10:31;22.00;86.10
546;DHT22;259;53.304;9.816;2023-06-22T06:12:57;22.00;86.90
546;DHT22;259;53.304;9.816;2023-06-22T06:15:23;22.00;86.20
546;DHT22;259;53.304;9.816;2023-06-22T06:17:51;22.00;86.30
546;DHT22;259;53.304;9.816;2023-06-22T06:20:22;22.00;86.50
546;DHT22;259;53.304;9.816;2023-06-22T06:22:49;22.00;86.60
546;DHT22;259;53.304;9.816;2023-06-22T06:25:15;22.00;86.50
546;DHT22;259;53.304;9.816;2023-06-22T06:27:45;22.00;86.50
546;DHT22;259;53.304;9.816;2023-06-22T06:30:12;22.00;86.60
546;DHT22;259;53.304;9.816;2023-06-22T06:32:39;22.00;86.60
546;DHT22;259;53.304;9.816;2023-06-22T06:35:06;22.00;86.80
546;DHT22;259;53.304;9.816;2023-06-22T06:37:37;22.00;86.80
546;DHT22;259;53.304;9.816;2023-06-22T06:40:05;22.00;86.60
546;DHT22;259;53.304;9.816;2023-06-22T06:42:36;22.00;87.00
546;DHT22;259;53.304;9.816;2023-06-22T06:45:04;22.00;87.50
546;DHT22;259;53.304;9.816;2023-06-22T06:47:31;22.00;88.50
546;DHT22;259;53.304;9.816;2023-06-22T06:49:56;22.00;89.40
546;DHT22;259;53.304;9.816;2023-06-22T06:52:22;22.10;89.90
546;DHT22;259;53.304;9.816;2023-06-22T06:54:48;22.10;90.50
546;DHT22;259;53.304;9.816;2023-06-22T06:57:14;22.10;90.30
546;DHT22;259;53.304;9.816;2023-06-22T06:59:40;22.10;90.60
546;DHT22;259;53.304;9.816;2023-06-22T07:02:06;22.20;90.70
546;DHT22;259;53.304;9.816;2023-06-22T07:04:32;22.20;90.70
546;DHT22;259;53.304;9.816;2023-06-22T07:07:00;22.20;91.00
546;DHT22;259;53.304;9.816;2023-06-22T07:09:27;22.20;91.00
546;DHT22;259;53.304;9.816;2023-06-22T07:11:52;22.20;91.10
546;DHT22;259;53.304;9.816;2023-06-22T07:14:18;22.20;91.00
546;DHT22;259;53.304;9.816;2023-06-22T07:16:44;22.30;91.10
546;DHT22;259;53.304;9.816;2023-06-22T07:19:11;22.30;91.30
546;DHT22;259;53.304;9.816;2023-06-22T07:21:38;22.30;91.60
546;DHT22;259;53.304;9.816;2023-06-22T07:24:05;22.30;91.40
546;DHT22;259;53.304;9.816;2023-06-22T07:26:32;22.30;91.60
546;DHT22;259;53.304;9.816;2023-06-22T07:28:58;22.30;91.80
546;DHT22;259;53.304;9.816;2023-06-22T07:31:25;22.40;91.80
546;DHT22;259;53.304;9.816;2023-06-22T07:33:50;22.40;91.30
546;DHT22;259;53.304;9.816;2023-06-22T07:36:17;22.40;91.30
546;DHT22;259;53.304;9.816;2023-06-22T07:38:43;22.40;92.00
546;DHT22;259;53.304;9.816;2023-06-22T07:41:09;22.40;92.10
546;DHT22;259;53.304;9.816;2023-06-22T07:43:35;22.50;91.50
546;DHT22;259;53.304;9.816;2023-06-22T07:46:03;22.50;91.90
546;DHT22;259;53.304;9.816;2023-06-22T07:48:29;22.50;91.20
546;DHT22;259;53.304;9.816;2023-06-22T07:50:55;22.50;91.30
546;DHT22;259;53.304;9.816;2023-06-22T07:53:21;22.50;91.10
546;DHT22;259;53.304;9.816;2023-06-22T07:55:50;22.50;91.00
546;DHT22;259;53.304;9.816;2023-06-22T07:58:15;22.50;91.20
546;DHT22;259;53.304;9.816;2023-06-22T08:00:44;22.50;91.40
546;DHT22;259;53.304;9.816;2023-06-22T08:03:09;22.50;91.20
546;DHT22;259;53.304;9.816;2023-06-22T08:05:35;22.50;91.10
546;DHT22;259;53.304;9.816;2023-06-22T08:08:01;22.50;91.30
546;DHT22;259;53.304;9.816;2023-06-22T08:10:26;22.50;91.40
546;DHT22;259;53.304;9.816;2023-06-22T08:12:52;22.50;91.60
546;DHT22;259;53.304;9.816;2023-06-22T08:15:18;22.50;91.40
546;DHT22;259;53.304;9.816;2023-06-22T08:17:45;22.50;90.90
546;DHT22;259;53.304;9.816;2023-06-22T08:20:14;22.40;90.70
546;DHT22;259;53.304;9.816;2023-06-22T08:22:41;22.50;90.70
546;DHT22;259;53.304;9.816;2023-06-22T08:25:07;22.50;90.70
546;DHT22;259;53.304;9.816;2023-06-22T08:27:34;22.50;90.50
546;DHT22;259;53.304;9.816;2023-06-22T08:30:02;22.50;90.40
546;DHT22;259;53.304;9.816;2023-06-22T08:32:29;22.50;90.70
546;DHT22;259;53.304;9.816;2023-06-22T08:34:56;22.50;90.60
546;DHT22;259;53.304;9.816;2023-06-22T08:37:22;22.50;90.40
546;DHT22;259;53.304;9.816;2023-06-22T08:39:57;22.50;90.40
546;DHT22;259;53.304;9.816;2023-06-22T08:42:24;22.60;90.50
546;DHT22;259;53.304;9.816;2023-06-22T08:44:51;22.60;90.50
546;DHT22;259;53.304;9.816;2023-06-22T08:47:16;22.60;90.50
546;DHT22;259;53.304;9.816;2023-06-22T08:49:42;22.70;90.70
546;DHT22;259;53.304;9.816;2023-06-22T08:52:08;22.70;90.40
546;DHT22;259;53.304;9.816;2023-06-22T08:54:33;22.70;90.00
546;DHT22;259;53.304;9.816;2023-06-22T08:57:00;22.80;90.40
546;DHT22;259;53.304;9.816;2023-06-22T08:59:27;22.80;90.60
546;DHT22;259;53.304;9.816;2023-06-22T09:01:52;22.80;90.60
546;DHT22;259;53.304;9.816;2023-06-22T09:04:18;22.80;90.40
546;DHT22;259;53.304;9.816;2023-06-22T09:06:44;22.90;90.40
546;DHT22;259;53.304;9.816;2023-06-22T09:09:12;22.90;90.40
546;DHT22;259;53.304;9.816;2023-06-22T09:11:38;22.90;90.50
546;DHT22;259;53.304;9.816;2023-06-22T09:14:04;22.90;90.40
546;DHT22;259;53.304;9.816;2023-06-22T09:16:30;22.90;90.40
546;DHT22;259;53.304;9.816;2023-06-22T09:18:56;23.00;90.40
546;DHT22;259;53.304;9.816;2023-06-22T09:21:23;23.00;90.60
546;DHT22;259;53.304;9.816;2023-06-22T09:23:48;23.00;90.50
546;DHT22;259;53.304;9.816;2023-06-22T09:26:17;23.10;90.20
546;DHT22;259;53.304;9.816;2023-06-22T09:28:43;23.10;90.00
546;DHT22;259;53.304;9.816;2023-06-22T09:31:09;23.20;90.10
546;DHT22;259;53.304;9.816;2023-06-22T09:33:36;23.20;90.00
546;DHT22;259;53.304;9.816;2023-06-22T09:36:04;23.30;89.80
546;DHT22;259;53.304;9.816;2023-06-22T09:38:37;23.30;89.20
546;DHT22;259;53.304;9.816;2023-06-22T09:41:04;23.30;89.50
546;DHT22;259;53.304;9.816;2023-06-22T09:43:32;23.40;89.80
546;DHT22;259;53.304;9.816;2023-06-22T09:46:00;23.40;90.40
546;DHT22;259;53.304;9.816;2023-06-22T09:48:27;23.50;90.00
546;DHT22;259;53.304;9.816;2023-06-22T09:50:52;23.50;90.10
546;DHT22;259;53.304;9.816;2023-06-22T09:53:18;23.60;90.40
546;DHT22;259;53.304;9.816;2023-06-22T09:55:44;23.60;90.10
546;DHT22;259;53.304;9.816;2023-06-22T09:58:09;23.60;90.00
546;DHT22;259;53.304;9.816;2023-06-22T10:00:35;23.60;89.50
546;DHT22;259;53.304;9.816;2023-06-22T10:03:01;23.60;89.30
546;DHT22;259;53.304;9.816;2023-06-22T10:05:26;23.60;89.30
546;DHT22;259;53.304;9.816;2023-06-22T10:07:52;23.60;89.30
546;DHT22;259;53.304;9.816;2023-06-22T10:10:18;23.60;89.60
546;DHT22;259;53.304;9.816;2023-06-22T10:12:48;23.60;89.50
546;DHT22;259;53.304;9.816;2023-06-22T10:15:20;23.60;89.60
546;DHT22;259;53.304;9.816;2023-06-22T10:17:46;23.60;89.90
546;DHT22;259;53.304;9.816;2023-06-22T10:20:13;23.60;90.00
546;DHT22;259;53.304;9.816;2023-06-22T10:22:43;23.70;90.40
546;DHT22;259;53.304;9.816;2023-06-22T10:25:11;23.70;90.70
546;DHT22;259;53.304;9.816;2023-06-22T10:27:38;23.70;90.40
546;DHT22;259;53.304;9.816;2023-06-22T10:30:08;23.70;90.00
546;DHT22;259;53.304;9.816;2023-06-22T10:32:37;23.70;89.80
546;DHT22;259;53.304;9.816;2023-06-22T10:35:03;23.80;90.50
546;DHT22;259;53.304;9.816;2023-06-22T10:37:29;23.80;90.40
546;DHT22;259;53.304;9.816;2023-06-22T10:39:55;23.80;90.00
546;DHT22;259;53.304;9.816;2023-06-22T10:42:21;23.80;89.40
546;DHT22;259;53.304;9.816;2023-06-22T10:44:46;23.80;89.30
546;DHT22;259;53.304;9.816;2023-06-22T10:47:12;23.80;90.10
546;DHT22;259;53.304;9.816;2023-06-22T10:49:39;23.90;90.00
546;DHT22;259;53.304;9.816;2023-06-22T10:52:08;23.90;89.30
546;DHT22;259;53.304;9.816;2023-06-22T10:54:35;23.90;89.70
546;DHT22;259;53.304;9.816;2023-06-22T10:57:02;23.90;89.30
546;DHT22;259;53.304;9.816;2023-06-22T10:59:28;23.90;89.60
546;DHT22;259;53.304;9.816;2023-06-22T11:01:58;23.90;90.40
546;DHT22;259;53.304;9.816;2023-06-22T11:04:24;23.90;90.10
546;DHT22;259;53.304;9.816;2023-06-22T11:06:50;23.90;90.10
546;DHT22;259;53.304;9.816;2023-06-22T11:09:17;23.90;90.50
546;DHT22;259;53.304;9.816;2023-06-22T11:11:50;24.00;90.40
546;DHT22;259;53.304;9.816;2023-06-22T11:14:18;24.00;90.40
546;DHT22;259;53.304;9.816;2023-06-22T11:16:45;24.00;90.40
546;DHT22;259;53.304;9.816;2023-06-22T11:19:12;24.00;90.70
546;DHT22;259;53.304;9.816;2023-06-22T11:21:38;24.00;90.20
546;DHT22;259;53.304;9.816;2023-06-22T11:24:04;24.00;89.90
546;DHT22;259;53.304;9.816;2023-06-22T11:26:30;24.10;90.40
546;DHT22;259;53.304;9.816;2023-06-22T11:28:57;24.10;90.30
546;DHT22;259;53.304;9.816;2023-06-22T11:31:24;24.10;90.10
546;DHT22;259;53.304;9.816;2023-06-22T11:33:50;24.20;89.90
546;DHT22;259;53.304;9.816;2023-06-22T11:36:16;24.20;89.60
546;DHT22;259;53.304;9.816;2023-06-22T11:38:42;24.20;90.20
546;DHT22;259;53.304;9.816;2023-06-22T11:41:09;24.20;90.30
546;DHT22;259;53.304;9.816;2023-06-22T11:43:35;24.20;90.70
546;DHT22;259;53.304;9.816;2023-06-22T11:46:03;24.30;90.90
546;DHT22;259;53.304;9.816;2023-06-22T11:48:30;24.30;90.50
546;DHT22;259;53.304;9.816;2023-06-22T11:50:56;24.40;90.40
546;DHT22;259;53.304;9.816;2023-06-22T11:53:23;24.40;90.20
546;DHT22;259;53.304;9.816;2023-06-22T11:55:50;24.30;90.20
546;DHT22;259;53.304;9.816;2023-06-22T11:58:16;24.30;89.70
546;DHT22;259;53.304;9.816;2023-06-22T12:00:41;24.30;89.60
546;DHT22;259;53.304;9.816;2023-06-22T12:03:08;24.40;90.70
546;DHT22;259;53.304;9.816;2023-06-22T12:05:34;24.40;90.80
546;DHT22;259;53.304;9.816;2023-06-22T12:08:00;24.50;91.30
546;DHT22;259;53.304;9.816;2023-06-22T12:10:26;24.50;91.50
546;DHT22;259;53.304;9.816;2023-06-22T12:12:54;24.50;91.40
546;DHT22;259;53.304;9.816;2023-06-22T12:15:19;24.60;91.30
546;DHT22;259;53.304;9.816;2023-06-22T12:17:45;24.60;91.60
546;DHT22;259;53.304;9.816;2023-06-22T12:20:11;24.60;91.40
546;DHT22;259;53.304;9.816;2023-06-22T12:22:36;24.60;91.50
546;DHT22;259;53.304;9.816;2023-06-22T12:25:05;24.60;91.40
546;DHT22;259;53.304;9.816;2023-06-22T12:27:31;24.70;91.30
546;DHT22;259;53.304;9.816;2023-06-22T12:29:57;24.70;91.10
546;DHT22;259;53.304;9.816;2023-06-22T12:32:23;24.70;91.00
546;DHT22;259;53.304;9.816;2023-06-22T12:34:48;24.70;91.10
546;DHT22;259;53.304;9.816;2023-06-22T12:37:14;24.70;91.40
546;DHT22;259;53.304;9.816;2023-06-22T12:39:43;24.70;91.60
546;DHT22;259;53.304;9.816;2023-06-22T12:42:09;24.80;91.60
546;DHT22;259;53.304;9.816;2023-06-22T12:44:37;24.70;91.60
546;DHT22;259;53.304;9.816;2023-06-22T12:47:04;24.80;91.70
546;DHT22;259;53.304;9.816;2023-06-22T12:49:30;24.80;91.50
546;DHT22;259;53.304;9.816;2023-06-22T12:51:55;24.70;91.30
546;DHT22;259;53.304;9.816;2023-06-22T12:54:21;24.70;91.50
546;DHT22;259;53.304;9.816;2023-06-22T12:56:47;24.70;91.50
546;DHT22;259;53.304;9.816;2023-06-22T12:59:12;24.70;91.20
546;DHT22;259;53.304;9.816;2023-06-22T13:01:38;24.70;91.40
546;DHT22;259;53.304;9.816;2023-06-22T13:04:04;24.70;91.40
546;DHT22;259;53.304;9.816;2023-06-22T13:06:30;24.70;91.30
546;DHT22;259;53.304;9.816;2023-06-22T13:08:56;24.70;91.50
546;DHT22;259;53.304;9.816;2023-06-22T13:11:21;24.70;91.40
546;DHT22;259;53.304;9.816;2023-06-22T13:13:47;24.70;91.90
546;DHT22;259;53.304;9.816;2023-06-22T13:16:13;24.70;91.90
546;DHT22;259;53.304;9.816;2023-06-22T13:18:39;24.70;91.70
546;DHT22;259;53.304;9.816;2023-06-22T13:21:05;24.70;91.60
546;DHT22;259;53.304;9.816;2023-06-22T13:23:31;24.60;91.40
546;DHT22;259;53.304;9.816;2023-06-22T13:25:58;24.60;91.50
546;DHT22;259;53.304;9.816;2023-06-22T13:28:24;24.60;91.30
546;DHT22;259;53.304;9.816;2023-06-22T13:30:49;24.70;91.30
546;DHT22;259;53.304;9.816;2023-06-22T13:33:15;24.60;91.10
546;DHT22;259;53.304;9.816;2023-06-22T13:35:42;24.70;91.20
546;DHT22;259;53.304;9.816;2023-06-22T13:38:08;24.60;91.10
546;DHT22;259;53.304;9.816;2023-06-22T13:40:35;24.60;91.10
546;DHT22;259;53.304;9.816;2023-06-22T13:43:01;24.60;91.20
546;DHT22;259;53.304;9.816;2023-06-22T13:45:26;24.60;91.20
546;DHT22;259;53.304;9.816;2023-06-22T13:47:52;24.60;91.10
546;DHT22;259;53.304;9.816;2023-06-22T13:50:18;24.60;91.10
546;DHT22;259;53.304;9.816;2023-06-22T13:52:44;24.60;91.30
546;DHT22;259;53.304;9.816;2023-06-22T13:55:09;24.60;91.10
546;DHT22;259;53.304;9.816;2023-06-22T13:57:35;24.60;91.10
546;DHT22;259;53.304;9.816;2023-06-22T14:00:03;24.60;91.20
546;DHT22;259;53.304;9.816;2023-06-22T14:02:33;24.60;91.30
546;DHT22;259;53.304;9.816;2023-06-22T14:04:59;24.60;91.30
546;DHT22;259;53.304;9.816;2023-06-22T14:07:24;24.60;91.30
546;DHT22;259;53.304;9.816;2023-06-22T14:09:50;24.70;91.40
546;DHT22;259;53.304;9.816;2023-06-22T14:12:16;24.70;91.50
546;DHT22;259;53.304;9.816;2023-06-22T14:14:45;24.70;91.50
546;DHT22;259;53.304;9.816;2023-06-22T14:17:11;24.70;91.50
546;DHT22;259;53.304;9.816;2023-06-22T14:19:37;24.70;91.40
546;DHT22;259;53.304;9.816;2023-06-22T14:22:03;24.70;91.40
546;DHT22;259;53.304;9.816;2023-06-22T14:24:29;24.70;91.30
546;DHT22;259;53.304;9.816;2023-06-22T14:26:55;24.70;91.30
546;DHT22;259;53.304;9.816;2023-06-22T14:29:24;24.70;91.20
546;DHT22;259;53.304;9.816;2023-06-22T14:31:50;24.70;91.20
546;DHT22;259;53.304;9.816;2023-06-22T14:34:16;24.70;91.20
546;DHT22;259;53.304;9.816;2023-06-22T14:36:42;24.80;91.60
546;DHT22;259;53.304;9.816;2023-06-22T14:39:09;24.70;91.70
546;DHT22;259;53.304;9.816;2023-06-22T14:41:35;24.70;91.40
546;DHT22;259;53.304;9.816;2023-06-22T14:44:00;24.80;91.30
546;DHT22;259;53.304;9.816;2023-06-22T14:46:27;24.80;91.30
546;DHT22;259;53.304;9.816;2023-06-22T14:48:53;24.80;91.30
546;DHT22;259;53.304;9.816;2023-06-22T14:51:19;24.80;91.20
546;DHT22;259;53.304;9.816;2023-06-22T14:53:45;24.70;91.10
546;DHT22;259;53.304;9.816;2023-06-22T14:56:11;24.70;91.00
546;DHT22;259;53.304;9.816;2023-06-22T14:58:39;24.80;90.90
546;DHT22;259;53.304;9.816;2023-06-22T15:01:05;24.80;90.80
546;DHT22;259;53.304;9.816;2023-06-22T15:03:34;24.80;90.90
546;DHT22;259;53.304;9.816;2023-06-22T15:06:02;24.70;90.90
546;DHT22;259;53.304;9.816;2023-06-22T15:08:28;24.70;90.80
546;DHT22;259;53.304;9.816;2023-06-22T15:10:54;24.70;90.80
546;DHT22;259;53.304;9.816;2023-06-22T15:13:20;24.80;90.90
546;DHT22;259;53.304;9.816;2023-06-22T15:15:48;24.80;90.90
546;DHT22;259;53.304;9.816;2023-06-22T15:18:14;24.80;90.90
546;DHT22;259;53.304;9.816;2023-06-22T15:20:41;24.70;90.80
546;DHT22;259;53.304;9.816;2023-06-22T15:23:10;24.80;90.90
546;DHT22;259;53.304;9.816;2023-06-22T15:25:36;24.80;90.80
546;DHT22;259;53.304;9.816;2023-06-22T15:28:02;24.80;90.80
546;DHT22;259;53.304;9.816;2023-06-22T15:30:28;24.70;90.70
546;DHT22;259;53.304;9.816;2023-06-22T15:32:54;24.80;90.70
546;DHT22;259;53.304;9.816;2023-06-22T15:35:20;24.80;90.80
546;DHT22;259;53.304;9.816;2023-06-22T15:37:47;24.80;91.20
546;DHT22;259;53.304;9.816;2023-06-22T15:40:13;24.70;90.80
546;DHT22;259;53.304;9.816;2023-06-22T15:42:39;24.70;90.90
546;DHT22;259;53.304;9.816;2023-06-22T15:45:05;24.70;91.00
546;DHT22;259;53.304;9.816;2023-06-22T15:47:31;24.80;91.10
546;DHT22;259;53.304;9.816;2023-06-22T15:49:57;24.70;91.00
546;DHT22;259;53.304;9.816;2023-06-22T15:52:22;24.80;91.20
546;DHT22;259;53.304;9.816;2023-06-22T15:54:48;24.70;91.00
546;DHT22;259;53.304;9.816;2023-06-22T15:57:19;24.70;91.10
546;DHT22;259;53.304;9.816;2023-06-22T15:59:45;24.70;91.10
546;DHT22;259;53.304;9.816;2023-06-22T16:02:11;24.70;91.20
546;DHT22;259;53.304;9.816;2023-06-22T16:04:36;24.70;91.20
546;DHT22;259;53.304;9.816;2023-06-22T16:07:03;24.70;91.30
546;DHT22;259;53.304;9.816;2023-06-22T16:09:29;24.70;91.50
546;DHT22;259;53.304;9.816;2023-06-22T16:11:56;24.70;91.40
546;DHT22;259;53.304;9.816;2023-06-22T16:14:22;24.70;91.40
546;DHT22;259;53.304;9.816;2023-06-22T16:16:48;24.70;91.40
546;DHT22;259;53.304;9.816;2023-06-22T16:19:14;24.70;91.40
546;DHT22;259;53.304;9.816;2023-06-22T16:21:43;24.70;91.30
546;DHT22;259;53.304;9.816;2023-06-22T16:24:09;24.70;91.30
546;DHT22;259;53.304;9.816;2023-06-22T16:26:39;24.70;91.30
546;DHT22;259;53.304;9.816;2023-06-22T16:29:06;24.70;91.40
546;DHT22;259;53.304;9.816;2023-06-22T16:31:32;24.70;91.40
546;DHT22;259;53.304;9.816;2023-06-22T16:33:58;24.70;91.40